Latest Coastal Weather Observations for Ceduna

IDS60701

Issued at 3:11 pm CDT Monday 6 December 2021 (issued every 10 minutes, with the page automatically refreshed every 10 minutes)

About coastal observations | Map of coastal stations | Coastal observations for SA | Marine services | Other Formats
Station Details ID: 018012 Name: CEDUNA AMO Lat: -32.13 Lon: 133.70 Height: 15.3 m
Data from the previous 72 hours. | See also: Recent months at Ceduna
Date/Time
CDT
Wind Sea
Height
m
Swell Vis
km
Cloud Weather Temp
°C
Press
MSL
hPa
Rain since
9am
mm
Dir  Spd
kts
Gust
kts
Height
m
Period
s
Dir
06/03:00pm SSW 15 19 - - - - 10 Mostly cloudy - 19.6 1014.6 0.0
06/02:30pm SSW 15 18 - - - - 10 - - 20.0 1014.4 0.0
06/02:00pm SSW 16 19 - - - - 10 - - 18.9 1014.4 0.0
06/01:30pm SSW 14 19 - - - - 10 - - 20.7 1014.6 0.0
06/01:00pm SSW 15 18 - - - - 10 - - 19.5 1014.7 0.0
06/12:30pm SSW 14 18 - - - - 10 - - 20.4 1014.8 0.0
06/12:00pm SW 11 13 - - - - 10 - - 20.4 1014.8 0.0
06/11:30am SW 11 14 - - - - 10 - - 20.1 1014.8 0.0
06/11:00am SW 10 12 - - - - 10 - - 20.0 1014.7 0.0
06/10:30am SW 7 10 - - - - 10 - - 19.9 1014.8 0.0
06/10:00am SW 5 7 - - - - 10 - - 18.8 1015.1 0.0
06/09:38am SSW 5 7 - - - - 10 Partly cloudy - 18.7 1015.2 0.0
06/09:30am SSW 5 7 - - - - 10 Partly cloudy - 18.3 1015.1 0.0
06/09:00am SSE 6 9 - - - - 10 Partly cloudy - 17.4 1015.3 0.0
06/08:30am S 5 7 - - - - 10 Cloudy - 16.3 1014.8 0.0
06/08:00am CALM 0 0 - - - - 10 Cloudy - 15.3 1014.4 0.0
06/07:30am ENE 2 5 - - - - 10 Cloudy - 13.3 1014.0 0.0
06/07:00am ENE 4 6 - - - - 10 Cloudy - 11.6 1013.5 0.0
06/06:30am E 3 4 - - - - 10 Cloudy - 10.4 1013.3 0.0
06/06:14am ESE 3 4 - - - - 10 Cloudy - 8.9 1013.4 0.0
06/06:00am ESE 3 4 - - - - 4 Cloudy - 9.0 1013.4 0.0
06/05:55am SE 3 5 - - - - 5 Cloudy - 9.1 1013.3 0.0
06/05:32am SSE 2 3 - - - - 10 Partly cloudy - 9.1 1013.1 0.0
06/05:30am SSE 2 3 - - - - 10 Partly cloudy - 9.1 1013.2 0.0
06/05:29am SSE 2 3 - - - - 10 Partly cloudy - 9.2 1013.2 0.0
06/05:00am SSE 4 5 - - - - 2 - - 8.1 1013.3 0.0
06/04:55am SSE 4 5 - - - - 5 - - 7.8 1013.3 0.0
06/04:30am CALM 0 0 - - - - 10 - - 8.4 1013.2 0.0
06/04:10am CALM 0 3 - - - - 10 Partly cloudy - 9.2 1013.2 0.0
06/04:00am CALM 0 0 - - - - 5 - - 9.7 1013.3 0.0
06/03:30am CALM 0 0 - - - - 1 - - 9.8 1013.5 0.0
06/03:24am CALM 0 0 - - - - 5 - - 9.9 1013.6 0.0
06/03:00am CALM 0 0 - - - - 10 - - 10.4 1013.7 0.0
06/02:30am SE 2 3 - - - - 10 - - 12.8 1014.1 0.0
06/02:00am SE 5 6 - - - - 10 - - 13.1 1014.4 0.0
06/01:30am CALM 0 0 - - - - 10 - - 13.5 1014.5 0.0
06/01:00am SSE 3 4 - - - - 10 - - 13.8 1014.4 0.0
06/12:30am SE 6 7 - - - - 10 - - 14.0 1014.6 0.0
06/12:00am SE 6 7 - - - - 10 - - 14.3 1014.8 0.0
 
Date/Time
CDT
Wind Sea
Height
m
Swell Vis
km
Cloud Weather Temp
°C
Press
MSL
hPa
Rain since
9am
mm
Dir  Spd
kts
Gust
kts
Height
m
Period
s
Dir
05/11:30pm SE 9 11 - - - - 10 - - 14.9 1014.8 0.0
05/11:00pm SSE 9 12 - - - - 10 - - 15.4 1015.0 0.0
05/10:30pm SSE 8 10 - - - - 10 - - 15.3 1014.9 0.0
05/10:00pm SSE 9 12 - - - - 10 - - 15.9 1014.8 0.0
05/09:30pm SSE 9 11 - - - - 10 - - 16.1 1014.9 0.0
05/09:00pm SSE 9 10 - - - - 10 - - 16.7 1014.8 0.0
05/08:30pm S 10 12 - - - - 10 - - 17.4 1014.7 0.0
05/08:00pm SSE 11 14 - - - - 10 - - 18.3 1014.6 0.0
05/07:30pm S 10 13 - - - - 10 - - 19.7 1014.5 0.0
05/07:00pm S 10 14 - - - - 10 - - 20.2 1014.5 0.0
05/06:30pm SSE 11 13 - - - - 10 - - 20.7 1014.3 0.0
05/06:00pm SSE 12 15 - - - - 10 Cloudy - 20.3 1014.5 0.0
05/05:30pm S 11 15 - - - - 10 Partly cloudy - 19.8 1014.7 0.0
05/05:00pm SSW 13 18 - - - - 10 Partly cloudy - 19.9 1014.9 0.0
05/04:30pm S 12 14 - - - - 10 Partly cloudy - 20.7 1015.2 0.0
05/04:00pm S 11 14 - - - - 10 Partly cloudy - 22.2 1015.2 0.0
05/03:30pm SSW 13 17 - - - - 10 Partly cloudy - 21.7 1015.7 0.0
05/03:00pm SW 11 12 - - - - 10 Cloudy - 20.7 1016.2 0.0
05/02:30pm SW 11 13 - - - - 10 Cloudy - 21.0 1016.6 0.0
05/02:00pm S 5 7 - - - - 10 Cloudy - 21.0 1016.9 0.0
05/01:30pm S 7 9 - - - - 10 Partly cloudy - 20.3 1017.2 0.0
05/01:00pm SSW 8 11 - - - - 10 Partly cloudy - 20.4 1017.4 0.0
05/12:30pm NE 4 8 - - - - 10 Partly cloudy - 20.7 1017.8 0.0
05/12:00pm NE 4 6 - - - - 10 Cloudy - 19.2 1018.5 0.0
05/11:30am NE 5 7 - - - - 10 Partly cloudy - 18.9 1018.7 0.0
05/11:00am NE 6 9 - - - - 10 Cloudy - 19.0 1018.9 0.0
05/10:30am ESE 4 5 - - - - 10 Cloudy - 18.2 1019.1 0.0
05/10:00am ESE 6 8 - - - - 10 Cloudy - 17.6 1019.3 0.0
05/09:30am SE 9 11 - - - - 10 Partly cloudy - 17.2 1019.3 0.0
05/09:00am SE 9 12 - - - - 10 Cloudy - 16.6 1019.3 0.2
05/08:30am SE 12 15 - - - - 10 Partly cloudy - 16.0 1019.4 0.2
05/08:00am SE 8 11 - - - - 10 - - 15.4 1019.3 0.2
05/07:30am SE 6 7 - - - - 10 - - 14.7 1019.3 0.2
05/07:00am CALM 0 0 - - - - 10 Cloudy - 14.4 1019.6 0.2
05/06:30am CALM 0 3 - - - - 10 Cloudy - 14.5 1019.5 0.2
05/06:00am ESE 4 6 - - - - 10 Mostly cloudy Showers 14.5 1019.3 0.2
05/05:30am SSE 6 8 - - - - 10 Partly cloudy - 14.9 1018.6 0.0
05/05:00am SE 8 10 - - - - 10 Cloudy - 15.1 1018.0 0.0
05/04:30am SSE 6 7 - - - - 10 Cloudy - 15.0 1017.9 0.0
05/04:00am SE 7 8 - - - - 10 Cloudy - 15.1 1018.2 0.0
05/03:30am SSE 5 6 - - - - 10 Cloudy - 15.7 1018.6 0.0
05/03:00am SSE 5 6 - - - - 10 Cloudy Showers 16.0 1018.5 0.0
05/02:30am S 5 6 - - - - 10 Cloudy - 16.1 1018.6 0.0
05/02:00am S 5 7 - - - - 10 Cloudy - 16.4 1019.0 0.0
05/01:30am S 6 8 - - - - 10 Cloudy - 16.2 1019.0 0.0
05/01:00am SSE 6 9 - - - - 10 Cloudy - 16.2 1019.1 0.0
05/12:30am SSE 11 15 - - - - 10 Cloudy - 16.3 1018.9 0.0
05/12:00am SSE 11 16 - - - - 10 Mostly cloudy Drizzle 16.0 1018.7 0.0
 
Date/Time
CDT
Wind Sea
Height
m
Swell Vis
km
Cloud Weather Temp
°C
Press
MSL
hPa
Rain since
9am
mm
Dir  Spd
kts
Gust
kts
Height
m
Period
s
Dir
04/11:30pm SSE 11 17 - - - - 10 Partly cloudy - 16.4 1019.2 0.0
04/11:00pm SSE 11 14 - - - - 10 Partly cloudy - 16.4 1019.4 0.0
04/10:30pm SSE 9 12 - - - - 10 Partly cloudy - 16.7 1020.0 0.0
04/10:00pm SSE 11 15 - - - - 10 - - 16.7 1019.7 0.0
04/09:30pm SSE 12 16 - - - - 10 - - 16.7 1019.7 0.0
04/09:00pm SSE 13 17 - - - - 10 Cloudy - 16.7 1019.9 0.0
04/08:30pm SSE 14 19 - - - - 10 - - 16.6 1019.4 0.0
04/08:00pm SSE 14 20 - - - - 10 - - 17.0 1019.5 0.0
04/07:30pm SSE 17 23 - - - - 10 - - 17.0 1019.1 0.0
04/07:00pm S 17 22 - - - - 10 - - 17.5 1019.7 0.0
04/06:30pm SSE 17 21 - - - - 10 - - 17.8 1019.4 0.0
04/06:00pm S 15 18 - - - - 10 Mostly cloudy - 18.1 1020.0 0.0
04/05:30pm SSE 15 18 - - - - 10 - - 18.3 1020.2 0.0
04/05:00pm SSE 14 17 - - - - 10 - - 18.5 1020.3 0.0
04/04:30pm SSE 14 17 - - - - 10 - - 18.0 1020.9 0.0
04/04:00pm S 14 19 - - - - 10 - - 17.8 1021.6 0.0
04/03:30pm S 13 17 - - - - 10 Partly cloudy - 18.4 1022.0 0.0
04/03:00pm S 15 19 - - - - 10 Mostly cloudy - 17.8 1022.2 0.0
04/02:30pm S 14 18 - - - - 10 - - 17.8 1022.5 0.0
04/02:00pm S 13 16 - - - - 10 - - 18.0 1022.7 0.0
04/01:30pm S 11 13 - - - - 10 - - 19.4 1023.3 0.0
04/01:00pm S 11 15 - - - - 10 - - 18.9 1023.6 0.0
04/12:30pm S 10 14 - - - - 10 - - 18.8 1023.9 0.0
04/12:00pm S 11 14 - - - - 10 Cloudy - 19.0 1023.6 0.0
04/11:30am SSE 9 13 - - - - 10 - - 19.1 1023.2 0.0
04/11:00am SE 9 13 - - - - 10 - - 18.7 1023.4 0.0
04/10:30am SSE 12 17 - - - - 10 - - 18.1 1023.1 0.0
04/10:00am SE 12 16 - - - - 10 - - 17.5 1022.9 0.0
04/09:30am SE 13 17 - - - - 10 - - 16.5 1022.9 0.0
04/09:00am SE 13 17 - - - - 10 Cloudy - 16.0 1023.1 0.0
04/08:30am SE 16 21 - - - - 10 - - 15.0 1022.6 0.0
04/08:00am SE 13 17 - - - - 10 - - 15.1 1022.7 0.0
04/07:30am SE 10 14 - - - - 10 - - 13.8 1022.4 0.0
04/07:00am SE 8 12 - - - - 10 - - 13.7 1022.4 0.0
04/06:30am SE 8 11 - - - - 10 - - 13.7 1022.3 0.0
04/06:00am SE 11 14 - - - - 10 Cloudy - 13.7 1021.5 0.0
04/05:30am SE 10 14 - - - - 10 - - 14.1 1021.4 0.0
04/05:00am ESE 9 12 - - - - 10 - - 14.3 1020.9 0.0
04/04:30am SE 14 19 - - - - 10 - - 14.9 1019.3 0.0
04/04:00am ESE 13 17 - - - - 10 Partly cloudy - 15.2 1019.8 0.0
04/03:30am SE 15 19 - - - - 10 - - 15.7 1020.0 0.0
04/03:00am SSE 12 16 - - - - 10 Cloudy - 15.6 1020.9 0.0
04/02:30am SSE 11 16 - - - - 10 - - 15.6 1021.4 0.0
04/02:00am SSE 11 14 - - - - 10 - - 15.4 1021.9 0.0
04/01:30am SSE 11 13 - - - - 10 - - 15.2 1021.5 0.0
04/01:00am SSE 12 15 - - - - 10 - - 15.6 1021.7 0.0
04/12:30am SSE 10 13 - - - - 10 - - 15.6 1021.9 0.0
04/12:00am SSE 9 13 - - - - 10 Mostly cloudy - 15.8 1021.6 0.0
 
Date/Time
CDT
Wind Sea
Height
m
Swell Vis
km
Cloud Weather Temp
°C
Press
MSL
hPa
Rain since
9am
mm
Dir  Spd
kts
Gust
kts
Height
m
Period
s
Dir
03/11:30pm SSE 9 12 - - - - 10 - - 15.6 1021.5 0.0
03/11:00pm SSE 11 16 - - - - 10 - - 16.0 1021.5 0.0
03/10:30pm SSE 12 16 - - - - 10 - - 16.1 1020.8 0.0
03/10:00pm SSE 14 18 - - - - 10 - - 16.2 1020.7 0.0
03/09:30pm SSE 16 21 - - - - 10 - - 16.4 1019.9 0.0
03/09:00pm SSE 18 23 - - - - 10 Mostly cloudy - 16.5 1019.6 0.0
03/08:30pm SSE 16 23 - - - - 10 - - 16.8 1019.3 0.0
03/08:00pm SSE 16 23 - - - - 10 - - 17.2 1019.1 0.0
03/07:30pm SSE 19 27 - - - - 10 - - 17.9 1018.8 0.0
03/07:00pm S 19 23 - - - - 10 - - 18.7 1018.8 0.0
03/06:30pm S 15 20 - - - - 10 - - 18.1 1019.0 0.0
03/06:00pm SSE 16 20 - - - - 10 Mostly cloudy - 18.0 1019.1 0.0
03/05:30pm S 16 21 - - - - 10 - - 18.5 1019.0 0.0
03/05:00pm S 15 19 - - - - 10 - - 18.7 1019.1 0.0
03/04:30pm S 15 18 - - - - 10 - - 19.9 1019.3 0.0
03/04:00pm S 15 19 - - - - 10 - - 20.6 1019.4 0.0
03/03:30pm S 15 20 - - - - 10 - - 19.3 1019.8 0.0

Other formats

Comma delimited format used in spreadsheet applications
http://www.bom.gov.au/fwo/IDS60701/IDS60701.94653.axf

JavaScript Object Notation format (JSON) in row-major order
http://www.bom.gov.au/fwo/IDS60701/IDS60701.94653.json

Data quality

Most of these data are generated automatically and are frequently updated. Quality checks on data are not normally performed. It is possible for incorrect values to appear. Refer to information at About Latest Weather Observations and please check the disclaimer before using these data.